sensor_id;sensor_type;location;lat;lon;timestamp;pressure;altitude;pressure_sealevel;temperature;humidity
68474;BME280;55461;52.066;5.194;2023-01-29T00:01:31;102993.0;;;4.28;81.38
68474;BME280;55461;52.066;5.194;2023-01-29T00:03:08;102992.0;;;4.26;81.8
68474;BME280;55461;52.066;5.194;2023-01-29T00:06:22;102990.00000000001;;;4.2;82.17
68474;BME280;55461;52.066;5.194;2023-01-29T00:08:00;102988.00000000001;;;4.1;82.37
68474;BME280;55461;52.066;5.194;2023-01-29T00:09:37;102980.0;;;4.09;82.37
68474;BME280;55461;52.066;5.194;2023-01-29T00:12:52;102977.0;;;4.17;82.21
68474;BME280;55461;52.066;5.194;2023-01-29T00:14:29;102976.0;;;4.24;82.36
68474;BME280;55461;52.066;5.194;2023-01-29T00:16:06;102967.0;;;4.26;82.11
68474;BME280;55461;52.066;5.194;2023-01-29T00:17:42;102963.00000000001;;;4.2;82.72
68474;BME280;55461;52.066;5.194;2023-01-29T00:20:57;102954.0;;;4.12;83.33
68474;BME280;55461;52.066;5.194;2023-01-29T00:22:34;102954.0;;;4.09;83.63
68474;BME280;55461;52.066;5.194;2023-01-29T00:24:10;102954.0;;;4.07;83.91
68474;BME280;55461;52.066;5.194;2023-01-29T00:27:24;102954.0;;;4.04;83.56
68474;BME280;55461;52.066;5.194;2023-01-29T00:29:01;102944.0;;;4.07;83.29
68474;BME280;55461;52.066;5.194;2023-01-29T00:30:38;102944.0;;;4.24;82.59
68474;BME280;55461;52.066;5.194;2023-01-29T00:32:15;102946.0;;;4.2;82.78
68474;BME280;55461;52.066;5.194;2023-01-29T00:35:29;102951.0;;;4.09;83.15
68474;BME280;55461;52.066;5.194;2023-01-29T00:37:07;102953.0;;;4.16;82.59
68474;BME280;55461;52.066;5.194;2023-01-29T00:38:45;102958.99999999999;;;4.12;82.5
68474;BME280;55461;52.066;5.194;2023-01-29T00:46:09;102952.0;;;4.07;83.28
68474;BME280;55461;52.066;5.194;2023-01-29T00:47:46;102952.0;;;4.14;83.37
68474;BME280;55461;52.066;5.194;2023-01-29T00:49:24;102952.0;;;4.21;83.1
68474;BME280;55461;52.066;5.194;2023-01-29T00:51:01;102949.0;;;4.12;83.67
68474;BME280;55461;52.066;5.194;2023-01-29T00:54:18;102946.0;;;4.24;83.39
68474;BME280;55461;52.066;5.194;2023-01-29T00:55:54;102942.0;;;4.24;83.13
68474;BME280;55461;52.066;5.194;2023-01-29T00:57:32;102941.00000000001;;;4.37;82.64
68474;BME280;55461;52.066;5.194;2023-01-29T01:00:48;102932.0;;;4.43;82.29
68474;BME280;55461;52.066;5.194;2023-01-29T01:03:29;102926.0;;;4.61;81.66
68474;BME280;55461;52.066;5.194;2023-01-29T01:05:08;102926.0;;;4.55;81.47
68474;BME280;55461;52.066;5.194;2023-01-29T01:06:51;102929.0;;;4.55;81.67
68474;BME280;55461;52.066;5.194;2023-01-29T01:10:57;102928.0;;;4.38;82.03
68474;BME280;55461;52.066;5.194;2023-01-29T01:12:34;102917.0;;;4.43;82.18
68474;BME280;55461;52.066;5.194;2023-01-29T01:14:10;102915.00000000001;;;4.39;82.1
68474;BME280;55461;52.066;5.194;2023-01-29T01:17:24;102914.00000000001;;;4.42;82.18
68474;BME280;55461;52.066;5.194;2023-01-29T01:19:01;102915.00000000001;;;4.49;82.04
68474;BME280;55461;52.066;5.194;2023-01-29T01:20:39;102911.99999999999;;;4.5;81.75
68474;BME280;55461;52.066;5.194;2023-01-29T01:23:53;102905.0;;;4.39;82.29
68474;BME280;55461;52.066;5.194;2023-01-29T01:25:29;102908.99999999999;;;4.41;81.99
68474;BME280;55461;52.066;5.194;2023-01-29T01:27:06;102908.0;;;4.38;81.93
68474;BME280;55461;52.066;5.194;2023-01-29T01:28:43;102911.99999999999;;;4.39;81.8
68474;BME280;55461;52.066;5.194;2023-01-29T01:31:58;102913.00000000001;;;4.45;81.77
68474;BME280;55461;52.066;5.194;2023-01-29T01:33:36;102919.0;;;4.33;82.25
68474;BME280;55461;52.066;5.194;2023-01-29T01:35:14;102930.0;;;4.42;81.66
68474;BME280;55461;52.066;5.194;2023-01-29T01:38:28;102926.0;;;4.49;81.5
68474;BME280;55461;52.066;5.194;2023-01-29T01:40:14;102929.0;;;4.49;80.94
68474;BME280;55461;52.066;5.194;2023-01-29T01:41:53;102927.0;;;4.51;80.94
68474;BME280;55461;52.066;5.194;2023-01-29T01:43:46;102933.99999999999;;;4.63;80.8
68474;BME280;55461;52.066;5.194;2023-01-29T01:45:27;102933.0;;;4.45;80.95
68474;BME280;55461;52.066;5.194;2023-01-29T01:48:41;102928.0;;;4.43;81.19
68474;BME280;55461;52.066;5.194;2023-01-29T01:50:22;102928.0;;;4.37;81.69
68474;BME280;55461;52.066;5.194;2023-01-29T01:52:02;102930.0;;;4.42;81.62
68474;BME280;55461;52.066;5.194;2023-01-29T01:55:25;102927.0;;;4.39;81.69
68474;BME280;55461;52.066;5.194;2023-01-29T01:57:12;102931.0;;;4.38;81.66
68474;BME280;55461;52.066;5.194;2023-01-29T01:58:53;102932.0;;;4.45;81.88
68474;BME280;55461;52.066;5.194;2023-01-29T02:00:32;102939.00000000001;;;4.38;81.77
68474;BME280;55461;52.066;5.194;2023-01-29T02:10:31;102931.0;;;4.61;80.83
68474;BME280;55461;52.066;5.194;2023-01-29T02:13:52;102932.0;;;4.47;81.23
68474;BME280;55461;52.066;5.194;2023-01-29T02:15:29;102934.99999999999;;;4.42;81.7
68474;BME280;55461;52.066;5.194;2023-01-29T02:17:09;102928.0;;;4.38;81.56
68474;BME280;55461;52.066;5.194;2023-01-29T02:20:26;102930.0;;;4.39;81.93
68474;BME280;55461;52.066;5.194;2023-01-29T02:22:14;102931.0;;;4.36;81.92
68474;BME280;55461;52.066;5.194;2023-01-29T02:24:10;102933.0;;;4.37;82.0
68474;BME280;55461;52.066;5.194;2023-01-29T02:26:26;102924.0;;;4.29;82.29
68474;BME280;55461;52.066;5.194;2023-01-29T02:28:31;102919.0;;;4.24;82.36
68474;BME280;55461;52.066;5.194;2023-01-29T02:30:15;102924.0;;;4.32;82.25
68474;BME280;55461;52.066;5.194;2023-01-29T02:32:11;102923.0;;;4.37;82.19
68474;BME280;55461;52.066;5.194;2023-01-29T02:33:57;102922.0;;;4.45;81.81
68474;BME280;55461;52.066;5.194;2023-01-29T02:35:53;102921.0;;;4.49;81.66
68474;BME280;55461;52.066;5.194;2023-01-29T02:39:24;102931.0;;;4.46;81.24
68474;BME280;55461;52.066;5.194;2023-01-29T02:41:08;102933.99999999999;;;4.41;81.36
68474;BME280;55461;52.066;5.194;2023-01-29T02:42:55;102933.99999999999;;;4.49;80.33
68474;BME280;55461;52.066;5.194;2023-01-29T02:44:39;102934.99999999999;;;4.38;80.28
68474;BME280;55461;52.066;5.194;2023-01-29T02:46:22;102936.99999999999;;;4.53;80.2
68474;BME280;55461;52.066;5.194;2023-01-29T02:49:46;102942.0;;;4.41;80.86
68474;BME280;55461;52.066;5.194;2023-01-29T02:51:30;102938.00000000001;;;4.45;80.8
68474;BME280;55461;52.066;5.194;2023-01-29T02:53:13;102940.00000000001;;;4.38;80.61
68474;BME280;55461;52.066;5.194;2023-01-29T02:54:55;102938.00000000001;;;4.41;81.16
68474;BME280;55461;52.066;5.194;2023-01-29T02:56:38;102942.0;;;4.39;81.09
68474;BME280;55461;52.066;5.194;2023-01-29T03:00:10;102942.0;;;4.47;81.42
68474;BME280;55461;52.066;5.194;2023-01-29T03:01:53;102941.00000000001;;;4.45;81.91
68474;BME280;55461;52.066;5.194;2023-01-29T03:03:35;102940.00000000001;;;4.62;81.47
68474;BME280;55461;52.066;5.194;2023-01-29T03:05:21;102943.0;;;4.47;81.62
68474;BME280;55461;52.066;5.194;2023-01-29T03:07:03;102936.99999999999;;;4.51;81.62
68474;BME280;55461;52.066;5.194;2023-01-29T03:10:32;102932.0;;;4.41;81.83
68474;BME280;55461;52.066;5.194;2023-01-29T03:12:21;102933.0;;;4.33;82.54
68474;BME280;55461;52.066;5.194;2023-01-29T03:14:10;102933.99999999999;;;4.41;82.82
68474;BME280;55461;52.066;5.194;2023-01-29T03:15:58;102925.0;;;4.38;82.66
68474;BME280;55461;52.066;5.194;2023-01-29T03:17:41;102925.0;;;4.34;82.77
68474;BME280;55461;52.066;5.194;2023-01-29T03:21:53;102917.0;;;4.45;82.16
68474;BME280;55461;52.066;5.194;2023-01-29T03:32:15;102909.99999999999;;;4.45;82.3
68474;BME280;55461;52.066;5.194;2023-01-29T03:33:59;102909.99999999999;;;4.49;82.23
68474;BME280;55461;52.066;5.194;2023-01-29T03:35:53;102908.99999999999;;;4.49;82.32
68474;BME280;55461;52.066;5.194;2023-01-29T03:37:35;102900.0;;;4.61;82.46
68474;BME280;55461;52.066;5.194;2023-01-29T03:39:16;102886.99999999999;;;4.62;82.08
68474;BME280;55461;52.066;5.194;2023-01-29T03:40:56;102884.99999999999;;;4.58;82.47
68474;BME280;55461;52.066;5.194;2023-01-29T03:42:43;102881.0;;;4.5;82.75
68474;BME280;55461;52.066;5.194;2023-01-29T03:46:21;102879.0;;;4.53;82.2
68474;BME280;55461;52.066;5.194;2023-01-29T03:48:06;102881.0;;;4.55;82.35
68474;BME280;55461;52.066;5.194;2023-01-29T03:49:55;102880.0;;;4.61;81.98
68474;BME280;55461;52.066;5.194;2023-01-29T03:51:39;102889.00000000001;;;4.49;81.78
68474;BME280;55461;52.066;5.194;2023-01-29T03:53:24;102878.0;;;4.54;82.03
68474;BME280;55461;52.066;5.194;2023-01-29T03:56:55;102879.0;;;4.53;82.28
68474;BME280;55461;52.066;5.194;2023-01-29T03:58:39;102879.0;;;4.59;81.99
68474;BME280;55461;52.066;5.194;2023-01-29T04:00:22;102879.0;;;4.67;81.69
68474;BME280;55461;52.066;5.194;2023-01-29T04:02:05;102876.0;;;4.66;81.55
68474;BME280;55461;52.066;5.194;2023-01-29T04:03:49;102877.0;;;4.45;82.3
68474;BME280;55461;52.066;5.194;2023-01-29T04:07:15;102868.0;;;4.5;82.0
68474;BME280;55461;52.066;5.194;2023-01-29T04:08:58;102872.0;;;4.51;81.72
68474;BME280;55461;52.066;5.194;2023-01-29T04:10:40;102873.0;;;4.49;81.75
68474;BME280;55461;52.066;5.194;2023-01-29T04:12:23;102861.99999999999;;;4.45;81.96
68474;BME280;55461;52.066;5.194;2023-01-29T04:14:02;102854.0;;;4.33;82.33
68474;BME280;55461;52.066;5.194;2023-01-29T04:17:27;102855.0;;;4.34;82.36
68474;BME280;55461;52.066;5.194;2023-01-29T04:19:09;102849.0;;;4.39;82.08
68474;BME280;55461;52.066;5.194;2023-01-29T04:20:47;102853.0;;;4.32;82.42
68474;BME280;55461;52.066;5.194;2023-01-29T04:22:29;102855.0;;;4.32;82.41
68474;BME280;55461;52.066;5.194;2023-01-29T04:25:53;102853.0;;;4.22;82.87
68474;BME280;55461;52.066;5.194;2023-01-29T04:27:51;102854.0;;;4.39;82.31
68474;BME280;55461;52.066;5.194;2023-01-29T04:29:40;102851.0;;;4.39;81.96
68474;BME280;55461;52.066;5.194;2023-01-29T04:31:23;102854.0;;;4.28;82.09
68474;BME280;55461;52.066;5.194;2023-01-29T04:33:13;102855.0;;;4.18;82.64
68474;BME280;55461;52.066;5.194;2023-01-29T04:34:59;102852.0;;;4.03;82.88
68474;BME280;55461;52.066;5.194;2023-01-29T04:38:39;102852.0;;;4.12;82.91
68474;BME280;55461;52.066;5.194;2023-01-29T04:40:24;102844.0;;;4.2;82.92
68474;BME280;55461;52.066;5.194;2023-01-29T04:42:13;102843.0;;;4.34;81.56
68474;BME280;55461;52.066;5.194;2023-01-29T04:43:58;102843.0;;;4.28;82.16
68474;BME280;55461;52.066;5.194;2023-01-29T04:45:46;102845.0;;;4.21;81.73
68474;BME280;55461;52.066;5.194;2023-01-29T04:47:34;102838.00000000001;;;4.29;81.19
68474;BME280;55461;52.066;5.194;2023-01-29T04:51:10;102833.99999999999;;;4.24;80.83
68474;BME280;55461;52.066;5.194;2023-01-29T04:52:57;102833.0;;;4.38;80.33
68474;BME280;55461;52.066;5.194;2023-01-29T04:54:48;102838.00000000001;;;4.3;80.05
68474;BME280;55461;52.066;5.194;2023-01-29T04:57:18;102832.0;;;4.33;80.12
68474;BME280;55461;52.066;5.194;2023-01-29T04:59:00;102829.0;;;4.2;80.91
68474;BME280;55461;52.066;5.194;2023-01-29T05:00:43;102830.0;;;4.07;80.86
68474;BME280;55461;52.066;5.194;2023-01-29T05:02:21;102821.0;;;4.24;80.16
68474;BME280;55461;52.066;5.194;2023-01-29T05:05:45;102818.0;;;4.29;79.83
68474;BME280;55461;52.066;5.194;2023-01-29T05:07:25;102816.00000000001;;;4.18;80.33
68474;BME280;55461;52.066;5.194;2023-01-29T05:09:05;102808.99999999999;;;4.22;80.36
68474;BME280;55461;52.066;5.194;2023-01-29T05:10:43;102811.99999999999;;;4.21;80.33
68474;BME280;55461;52.066;5.194;2023-01-29T05:14:03;102817.0;;;4.28;79.66
68474;BME280;55461;52.066;5.194;2023-01-29T05:15:45;102816.00000000001;;;4.2;79.34
68474;BME280;55461;52.066;5.194;2023-01-29T05:17:24;102813.00000000001;;;4.25;79.05
68474;BME280;55461;52.066;5.194;2023-01-29T05:19:02;102813.00000000001;;;4.22;79.22
68474;BME280;55461;52.066;5.194;2023-01-29T05:22:22;102816.00000000001;;;4.33;78.92
68474;BME280;55461;52.066;5.194;2023-01-29T05:24:09;102819.0;;;4.3;78.75
68474;BME280;55461;52.066;5.194;2023-01-29T05:25:46;102820.0;;;4.38;78.5
68474;BME280;55461;52.066;5.194;2023-01-29T05:28:29;102825.0;;;4.32;78.87
68474;BME280;55461;52.066;5.194;2023-01-29T05:30:07;102824.0;;;4.24;78.33
68474;BME280;55461;52.066;5.194;2023-01-29T05:31:45;102827.0;;;4.36;78.06
68474;BME280;55461;52.066;5.194;2023-01-29T05:35:02;102826.0;;;4.14;78.8
68474;BME280;55461;52.066;5.194;2023-01-29T05:36:39;102821.0;;;4.08;79.0
68474;BME280;55461;52.066;5.194;2023-01-29T05:38:17;102817.0;;;4.12;79.14
68474;BME280;55461;52.066;5.194;2023-01-29T05:39:54;102816.00000000001;;;4.08;79.19
68474;BME280;55461;52.066;5.194;2023-01-29T05:43:14;102822.0;;;4.04;79.72
68474;BME280;55461;52.066;5.194;2023-01-29T05:44:52;102815.00000000001;;;4.16;79.08
68474;BME280;55461;52.066;5.194;2023-01-29T05:46:28;102817.0;;;4.05;79.12
68474;BME280;55461;52.066;5.194;2023-01-29T05:48:05;102816.00000000001;;;4.0;79.34
68474;BME280;55461;52.066;5.194;2023-01-29T05:51:19;102817.0;;;4.05;79.73
68474;BME280;55461;52.066;5.194;2023-01-29T05:52:56;102823.0;;;4.21;78.77
68474;BME280;55461;52.066;5.194;2023-01-29T05:54:32;102825.0;;;4.14;79.12
68474;BME280;55461;52.066;5.194;2023-01-29T05:57:45;102822.0;;;4.03;79.23
68474;BME280;55461;52.066;5.194;2023-01-29T05:59:22;102822.0;;;4.25;78.89
68474;BME280;55461;52.066;5.194;2023-01-29T06:01:07;102813.00000000001;;;4.32;78.11
68474;BME280;55461;52.066;5.194;2023-01-29T06:02:44;102817.0;;;4.24;78.44
68474;BME280;55461;52.066;5.194;2023-01-29T06:05:57;102811.99999999999;;;4.26;78.41
68474;BME280;55461;52.066;5.194;2023-01-29T06:07:33;102794.0;;;4.2;78.45
68474;BME280;55461;52.066;5.194;2023-01-29T06:09:11;102792.0;;;4.22;78.19
68474;BME280;55461;52.066;5.194;2023-01-29T06:12:25;102798.0;;;4.26;78.23
68474;BME280;55461;52.066;5.194;2023-01-29T06:14:02;102796.0;;;4.29;78.06
68474;BME280;55461;52.066;5.194;2023-01-29T06:15:40;102790.00000000001;;;4.33;78.34
68474;BME280;55461;52.066;5.194;2023-01-29T06:18:54;102783.0;;;4.32;78.41
68474;BME280;55461;52.066;5.194;2023-01-29T06:20:31;102778.0;;;4.26;78.31
68474;BME280;55461;52.066;5.194;2023-01-29T06:22:08;102781.0;;;4.34;77.88
68474;BME280;55461;52.066;5.194;2023-01-29T06:23:45;102788.00000000001;;;4.33;77.69
68474;BME280;55461;52.066;5.194;2023-01-29T06:26:58;102783.0;;;4.38;77.77
68474;BME280;55461;52.066;5.194;2023-01-29T06:28:34;102779.0;;;4.41;77.59
68474;BME280;55461;52.066;5.194;2023-01-29T06:30:12;102783.0;;;4.43;77.31
68474;BME280;55461;52.066;5.194;2023-01-29T06:33:25;102780.0;;;4.24;77.7
68474;BME280;55461;52.066;5.194;2023-01-29T06:35:02;102773.0;;;4.33;77.52
68474;BME280;55461;52.066;5.194;2023-01-29T06:36:41;102768.0;;;4.37;77.08
68474;BME280;55461;52.066;5.194;2023-01-29T06:38:17;102769.0;;;4.45;76.94
68474;BME280;55461;52.066;5.194;2023-01-29T06:41:30;102771.0;;;4.38;77.08
68474;BME280;55461;52.066;5.194;2023-01-29T06:43:06;102777.0;;;4.37;77.36
68474;BME280;55461;52.066;5.194;2023-01-29T06:44:43;102778.0;;;4.28;77.3
68474;BME280;55461;52.066;5.194;2023-01-29T06:47:56;102768.0;;;4.28;77.14
68474;BME280;55461;52.066;5.194;2023-01-29T06:49:33;102761.99999999999;;;4.3;77.28
68474;BME280;55461;52.066;5.194;2023-01-29T06:51:10;102771.0;;;4.34;77.41
68474;BME280;55461;52.066;5.194;2023-01-29T06:54:23;102781.0;;;4.3;76.77
68474;BME280;55461;52.066;5.194;2023-01-29T06:55:59;102781.0;;;4.3;77.22
68474;BME280;55461;52.066;5.194;2023-01-29T06:57:36;102783.99999999999;;;4.33;77.03
68474;BME280;55461;52.066;5.194;2023-01-29T06:59:13;102781.0;;;4.25;77.16
68474;BME280;55461;52.066;5.194;2023-01-29T07:02:28;102781.0;;;4.33;76.97
68474;BME280;55461;52.066;5.194;2023-01-29T07:05:41;102781.0;;;4.37;77.0
68474;BME280;55461;52.066;5.194;2023-01-29T07:08:55;102777.0;;;4.45;76.69
68474;BME280;55461;52.066;5.194;2023-01-29T07:10:31;102778.0;;;4.36;76.95
68474;BME280;55461;52.066;5.194;2023-01-29T07:12:08;102774.0;;;4.33;77.12
68474;BME280;55461;52.066;5.194;2023-01-29T07:15:21;102769.0;;;4.37;77.16
68474;BME280;55461;52.066;5.194;2023-01-29T07:16:58;102767.0;;;4.42;76.58
68474;BME280;55461;52.066;5.194;2023-01-29T07:18:36;102763.00000000001;;;4.61;76.55
68474;BME280;55461;52.066;5.194;2023-01-29T07:20:12;102767.0;;;4.54;77.19
68474;BME280;55461;52.066;5.194;2023-01-29T07:23:24;102769.0;;;4.39;77.86
68474;BME280;55461;52.066;5.194;2023-01-29T07:25:01;102772.0;;;4.41;78.25
68474;BME280;55461;52.066;5.194;2023-01-29T07:26:38;102777.0;;;4.43;77.94
68474;BME280;55461;52.066;5.194;2023-01-29T07:29:52;102776.0;;;4.5;77.52
68474;BME280;55461;52.066;5.194;2023-01-29T07:31:29;102777.0;;;4.41;77.16
68474;BME280;55461;52.066;5.194;2023-01-29T07:33:08;102775.0;;;4.33;77.7
68474;BME280;55461;52.066;5.194;2023-01-29T07:34:45;102771.0;;;4.36;77.49
68474;BME280;55461;52.066;5.194;2023-01-29T07:37:59;102773.0;;;4.49;76.97
68474;BME280;55461;52.066;5.194;2023-01-29T07:39:35;102773.0;;;4.54;76.78
68474;BME280;55461;52.066;5.194;2023-01-29T07:41:12;102772.0;;;4.42;77.14
68474;BME280;55461;52.066;5.194;2023-01-29T07:44:25;102775.0;;;4.43;77.08
68474;BME280;55461;52.066;5.194;2023-01-29T07:46:02;102779.0;;;4.34;77.17
68474;BME280;55461;52.066;5.194;2023-01-29T07:47:39;102774.0;;;4.22;77.47
68474;BME280;55461;52.066;5.194;2023-01-29T07:50:53;102767.0;;;4.36;77.31
68474;BME280;55461;52.066;5.194;2023-01-29T07:52:32;102761.99999999999;;;4.37;77.08
68474;BME280;55461;52.066;5.194;2023-01-29T07:54:09;102759.99999999999;;;4.32;77.22
68474;BME280;55461;52.066;5.194;2023-01-29T07:55:45;102758.99999999999;;;4.21;77.3
68474;BME280;55461;52.066;5.194;2023-01-29T07:58:59;102757.0;;;4.37;77.11
68474;BME280;55461;52.066;5.194;2023-01-29T08:00:36;102752.0;;;4.29;77.05
68474;BME280;55461;52.066;5.194;2023-01-29T08:02:13;102745.0;;;4.22;77.3
68474;BME280;55461;52.066;5.194;2023-01-29T08:05:27;102747.0;;;4.33;77.16
68474;BME280;55461;52.066;5.194;2023-01-29T08:07:05;102745.0;;;4.28;77.33
68474;BME280;55461;52.066;5.194;2023-01-29T08:08:42;102742.0;;;4.28;77.67
68474;BME280;55461;52.066;5.194;2023-01-29T08:10:19;102734.99999999999;;;4.22;77.59
68474;BME280;55461;52.066;5.194;2023-01-29T08:13:33;102734.99999999999;;;4.28;77.3
68474;BME280;55461;52.066;5.194;2023-01-29T08:15:10;102732.0;;;4.28;77.41
68474;BME280;55461;52.066;5.194;2023-01-29T08:16:47;102727.0;;;4.34;76.88
68474;BME280;55461;52.066;5.194;2023-01-29T08:20:02;102726.0;;;4.33;76.88
68474;BME280;55461;52.066;5.194;2023-01-29T08:21:39;102726.0;;;4.22;77.27
68474;BME280;55461;52.066;5.194;2023-01-29T08:23:15;102727.0;;;4.21;77.13
68474;BME280;55461;52.066;5.194;2023-01-29T08:26:28;102725.0;;;4.24;77.05
68474;BME280;55461;52.066;5.194;2023-01-29T08:28:05;102728.0;;;4.29;77.33
68474;BME280;55461;52.066;5.194;2023-01-29T08:29:42;102725.0;;;4.34;76.8
68474;BME280;55461;52.066;5.194;2023-01-29T08:31:19;102722.0;;;4.37;76.77
68474;BME280;55461;52.066;5.194;2023-01-29T08:34:33;102724.0;;;4.42;76.63
68474;BME280;55461;52.066;5.194;2023-01-29T08:36:10;102726.0;;;4.28;76.84
68474;BME280;55461;52.066;5.194;2023-01-29T08:37:55;102727.0;;;4.28;76.97
68474;BME280;55461;52.066;5.194;2023-01-29T08:41:08;102725.0;;;4.42;76.39
68474;BME280;55461;52.066;5.194;2023-01-29T08:42:44;102719.0;;;4.32;76.42
68474;BME280;55461;52.066;5.194;2023-01-29T08:44:20;102716.00000000001;;;4.41;76.41
68474;BME280;55461;52.066;5.194;2023-01-29T08:45:57;102715.00000000001;;;4.49;76.22
68474;BME280;55461;52.066;5.194;2023-01-29T08:49:11;102714.00000000001;;;4.33;76.34
68474;BME280;55461;52.066;5.194;2023-01-29T08:50:48;102709.99999999999;;;4.42;76.22
68474;BME280;55461;52.066;5.194;2023-01-29T08:52:24;102704.0;;;4.39;76.55
68474;BME280;55461;52.066;5.194;2023-01-29T08:55:38;102702.0;;;4.49;75.99
68474;BME280;55461;52.066;5.194;2023-01-29T08:57:14;102700.0;;;4.37;76.45
68474;BME280;55461;52.066;5.194;2023-01-29T08:58:52;102702.0;;;4.43;75.77
68474;BME280;55461;52.066;5.194;2023-01-29T09:02:05;102697.0;;;4.47;75.83
68474;BME280;55461;52.066;5.194;2023-01-29T09:03:43;102697.0;;;4.38;75.94
68474;BME280;55461;52.066;5.194;2023-01-29T09:05:19;102699.0;;;4.45;75.92
68474;BME280;55461;52.066;5.194;2023-01-29T09:06:56;102699.0;;;4.57;75.64
68474;BME280;55461;52.066;5.194;2023-01-29T09:10:11;102700.0;;;4.62;75.63
68474;BME280;55461;52.066;5.194;2023-01-29T09:11:48;102703.0;;;4.53;75.44
68474;BME280;55461;52.066;5.194;2023-01-29T09:13:24;102700.0;;;4.58;74.86
68474;BME280;55461;52.066;5.194;2023-01-29T09:16:38;102698.0;;;4.61;74.77
68474;BME280;55461;52.066;5.194;2023-01-29T09:18:15;102701.0;;;4.62;75.02
68474;BME280;55461;52.066;5.194;2023-01-29T09:19:52;102700.0;;;4.49;74.99
68474;BME280;55461;52.066;5.194;2023-01-29T09:21:29;102696.0;;;4.74;74.38
68474;BME280;55461;52.066;5.194;2023-01-29T09:24:44;102697.0;;;4.58;74.87
68474;BME280;55461;52.066;5.194;2023-01-29T09:26:21;102697.0;;;4.59;74.8
68474;BME280;55461;52.066;5.194;2023-01-29T09:27:58;102705.0;;;4.62;74.59
68474;BME280;55461;52.066;5.194;2023-01-29T09:31:12;102697.0;;;4.59;74.56
68474;BME280;55461;52.066;5.194;2023-01-29T09:32:49;102697.0;;;4.74;73.99
68474;BME280;55461;52.066;5.194;2023-01-29T09:34:26;102693.0;;;4.62;74.47
68474;BME280;55461;52.066;5.194;2023-01-29T09:37:39;102696.0;;;4.55;74.66
68474;BME280;55461;52.066;5.194;2023-01-29T09:39:15;102698.0;;;4.7;74.41
68474;BME280;55461;52.066;5.194;2023-01-29T09:40:58;102701.0;;;4.91;73.77
68474;BME280;55461;52.066;5.194;2023-01-29T09:42:45;102699.0;;;4.7;74.08
68474;BME280;55461;52.066;5.194;2023-01-29T09:46:32;102698.0;;;4.82;73.92
68474;BME280;55461;52.066;5.194;2023-01-29T09:48:13;102702.0;;;5.03;73.14
68474;BME280;55461;52.066;5.194;2023-01-29T09:49:51;102699.0;;;4.86;73.8
68474;BME280;55461;52.066;5.194;2023-01-29T09:51:37;102699.0;;;4.89;73.33
68474;BME280;55461;52.066;5.194;2023-01-29T09:53:18;102698.0;;;4.99;73.12
68474;BME280;55461;52.066;5.194;2023-01-29T09:55:01;102700.0;;;4.99;73.36
68474;BME280;55461;52.066;5.194;2023-01-29T09:58:24;102696.0;;;4.83;73.58
68474;BME280;55461;52.066;5.194;2023-01-29T10:00:04;102696.0;;;4.91;73.47
68474;BME280;55461;52.066;5.194;2023-01-29T10:01:47;102691.00000000001;;;4.99;73.63
68474;BME280;55461;52.066;5.194;2023-01-29T10:03:42;102688.00000000001;;;4.83;73.86
68474;BME280;55461;52.066;5.194;2023-01-29T10:05:39;102691.00000000001;;;4.87;73.8
68474;BME280;55461;52.066;5.194;2023-01-29T10:10:14;102689.00000000001;;;4.99;73.75
68474;BME280;55461;52.066;5.194;2023-01-29T10:11:59;102689.00000000001;;;4.83;73.72
68474;BME280;55461;52.066;5.194;2023-01-29T10:13:51;102691.00000000001;;;4.72;74.23
68474;BME280;55461;52.066;5.194;2023-01-29T10:17:45;102688.00000000001;;;4.76;74.14
68474;BME280;55461;52.066;5.194;2023-01-29T10:20:05;102688.00000000001;;;4.87;74.27
68474;BME280;55461;52.066;5.194;2023-01-29T10:23:09;102690.00000000001;;;4.79;74.36
68474;BME280;55461;52.066;5.194;2023-01-29T10:24:56;102693.0;;;4.96;74.16
68474;BME280;55461;52.066;5.194;2023-01-29T10:26:37;102686.99999999999;;;4.99;73.83
68474;BME280;55461;52.066;5.194;2023-01-29T10:29:55;102686.99999999999;;;4.88;73.66
68474;BME280;55461;52.066;5.194;2023-01-29T10:31:36;102682.0;;;4.89;74.08
68474;BME280;55461;52.066;5.194;2023-01-29T10:33:19;102674.0;;;4.95;74.08
68474;BME280;55461;52.066;5.194;2023-01-29T10:35:21;102667.0;;;5.05;74.03
68474;BME280;55461;52.066;5.194;2023-01-29T10:36:58;102665.00000000001;;;4.96;73.5
68474;BME280;55461;52.066;5.194;2023-01-29T10:40:20;102658.0;;;5.04;73.73
68474;BME280;55461;52.066;5.194;2023-01-29T10:42:07;102661.99999999999;;;4.95;73.98
68474;BME280;55461;52.066;5.194;2023-01-29T10:44:04;102668.0;;;4.89;73.94
68474;BME280;55461;52.066;5.194;2023-01-29T10:45:53;102655.0;;;4.82;74.2
68474;BME280;55461;52.066;5.194;2023-01-29T10:47:49;102649.0;;;4.89;74.38
68474;BME280;55461;52.066;5.194;2023-01-29T10:50:42;102646.0;;;4.82;74.44
68474;BME280;55461;52.066;5.194;2023-01-29T10:52:33;102646.0;;;4.91;74.41
68474;BME280;55461;52.066;5.194;2023-01-29T10:54:25;102642.0;;;4.91;74.52
68474;BME280;55461;52.066;5.194;2023-01-29T10:56:21;102639.00000000001;;;4.93;74.67
68474;BME280;55461;52.066;5.194;2023-01-29T10:58:11;102633.0;;;4.95;74.77
68474;BME280;55461;52.066;5.194;2023-01-29T11:00:02;102622.0;;;4.99;74.44
68474;BME280;55461;52.066;5.194;2023-01-29T11:03:22;102625.0;;;4.95;74.58
68474;BME280;55461;52.066;5.194;2023-01-29T11:05:00;102619.0;;;5.11;74.19
68474;BME280;55461;52.066;5.194;2023-01-29T11:06:37;102611.99999999999;;;5.03;74.3
68474;BME280;55461;52.066;5.194;2023-01-29T11:08:17;102607.0;;;5.2;74.16
68474;BME280;55461;52.066;5.194;2023-01-29T11:11:40;102611.99999999999;;;4.99;74.95
68474;BME280;55461;52.066;5.194;2023-01-29T11:13:28;102603.0;;;5.12;74.83
68474;BME280;55461;52.066;5.194;2023-01-29T11:15:15;102605.0;;;5.2;74.47
68474;BME280;55461;52.066;5.194;2023-01-29T11:16:55;102603.0;;;5.3;74.33
68474;BME280;55461;52.066;5.194;2023-01-29T11:20:30;102599.0;;;5.15;74.24
68474;BME280;55461;52.066;5.194;2023-01-29T11:22:12;102602.0;;;5.12;74.66
68474;BME280;55461;52.066;5.194;2023-01-29T11:23:50;102601.0;;;5.2;74.39